Time;durP1;ratioP1;P1;durP2;ratioP2;P2;SDS_P1;SDS_P2;PMS_P1;PMS_P2;Temp;Humidity;BMP_temperature;BMP_pressure;BME280_temperature;BME280_humidity;BME280_pressure;Samples;Min_cycle;Max_cycle;Signal;HPM_P1;HPM_P2
2021/01/23 00:01:38;;;;;;;9.55;6.63;;;;;;;;;;5073525;28;20119;-78
2021/01/23 00:04:04;;;;;;;14.15;7.97;;;;;;;;;;5073847;28;20036;-77
2021/01/23 00:06:29;;;;;;;8.88;6.45;;;;;;;;;;5073777;28;20397;-79
2021/01/23 00:08:54;;;;;;;12.75;6.18;;;;;;;;;;5073802;28;20079;-77
2021/01/23 00:11:20;;;;;;;12.88;7.00;;;;;;;;;;5073539;28;20550;-78
2021/01/23 00:13:45;;;;;;;9.73;7.03;;;;;;;;;;5092431;28;20036;-77
2021/01/23 00:16:10;;;;;;;11.15;6.40;;;;;;;;;;5094082;28;20052;-78
2021/01/23 00:18:35;;;;;;;8.55;5.82;;;;;;;;;;5093915;28;20097;-79
2021/01/23 00:21:01;;;;;;;14.50;5.90;;;;;;;;;;5092987;28;20474;-77
2021/01/23 00:23:26;;;;;;;10.07;5.82;;;;;;;;;;5094034;28;20035;-78
2021/01/23 00:25:52;;;;;;;9.15;5.13;;;;;;;;;;5094018;28;20032;-78
2021/01/23 00:28:17;;;;;;;9.75;5.53;;;;;;;;;;5093837;28;20103;-77
2021/01/23 00:30:42;;;;;;;10.50;6.53;;;;;;;;;;5093906;28;20590;-77
2021/01/23 00:33:08;;;;;;;10.02;6.53;;;;;;;;;;5093836;28;20036;-79
2021/01/23 00:35:33;;;;;;;8.55;5.50;;;;;;;;;;5093540;28;20039;-78
2021/01/23 00:37:58;;;;;;;8.90;6.00;;;;;;;;;;5093810;28;20086;-78
2021/01/23 00:40:24;;;;;;;9.85;6.50;;;;;;;;;;5092410;28;20032;-77
2021/01/23 00:42:50;;;;;;;18.30;7.00;;;;;;;;;;5082672;28;20036;-78
2021/01/23 00:45:15;;;;;;;9.45;6.18;;;;;;;;;;5072003;28;20036;-77
2021/01/23 00:47:41;;;;;;;12.10;6.70;;;;;;;;;;5073770;28;20039;-77
2021/01/23 00:50:07;;;;;;;15.73;6.53;;;;;;;;;;5076687;28;20465;-77
2021/01/23 00:52:32;;;;;;;7.03;5.47;;;;;;;;;;5077564;28;20056;-78
2021/01/23 00:54:57;;;;;;;10.90;6.25;;;;;;;;;;5077553;28;20075;-80
2021/01/23 00:57:24;;;;;;;10.48;7.38;;;;;;;;;;5076315;28;20036;-79
2021/01/23 00:59:49;;;;;;;10.43;6.95;;;;;;;;;;5076779;28;20496;-79
2021/01/23 01:02:14;;;;;;;10.77;7.60;;;;;;;;;;5077115;28;20047;-78
2021/01/23 01:04:43;;;;;;;11.05;7.72;;;;;;;;;;5075869;28;20215;-78
2021/01/23 01:07:08;;;;;;;10.98;7.32;;;;;;;;;;5076629;28;20628;-78
2021/01/23 01:09:34;;;;;;;9.48;7.30;;;;;;;;;;5076655;28;20123;-79
2021/01/23 01:11:59;;;;;;;13.43;6.90;;;;;;;;;;5080786;28;20050;-80
2021/01/23 01:14:24;;;;;;;10.68;7.20;;;;;;;;;;5096860;28;20039;-78
2021/01/23 01:16:50;;;;;;;11.30;6.90;;;;;;;;;;5096828;28;20062;-79
2021/01/23 01:19:16;;;;;;;11.13;6.15;;;;;;;;;;5079135;28;20044;-78
2021/01/23 01:21:41;;;;;;;13.35;7.13;;;;;;;;;;5076562;28;20050;-78
2021/01/23 01:24:07;;;;;;;10.35;6.47;;;;;;;;;;5076399;28;20037;-78
2021/01/23 01:26:32;;;;;;;9.95;7.13;;;;;;;;;;5076355;28;20028;-78
2021/01/23 01:28:57;;;;;;;11.10;7.30;;;;;;;;;;5075254;28;20470;-77
2021/01/23 01:31:23;;;;;;;13.50;7.53;;;;;;;;;;5076518;28;20044;-78
2021/01/23 01:33:48;;;;;;;13.05;8.30;;;;;;;;;;5074852;28;20060;-78
2021/01/23 01:36:14;;;;;;;12.55;7.20;;;;;;;;;;5075228;28;20135;-77
2021/01/23 01:38:40;;;;;;;11.40;6.60;;;;;;;;;;5076113;28;20032;-79
2021/01/23 01:41:05;;;;;;;9.40;6.15;;;;;;;;;;5076281;28;20032;-78
2021/01/23 01:43:31;;;;;;;10.00;6.20;;;;;;;;;;5076653;28;20047;-78
2021/01/23 01:45:56;;;;;;;9.23;6.28;;;;;;;;;;5075952;28;20114;-77
2021/01/23 01:48:22;;;;;;;10.65;6.25;;;;;;;;;;5074510;28;20040;-77
2021/01/23 01:50:47;;;;;;;10.07;6.22;;;;;;;;;;5076024;28;20032;-77
2021/01/23 01:53:13;;;;;;;12.05;7.32;;;;;;;;;;5075780;28;20032;-79
2021/01/23 01:55:38;;;;;;;11.65;7.93;;;;;;;;;;5075700;28;20482;-78
2021/01/23 01:58:03;;;;;;;10.10;7.45;;;;;;;;;;5075694;28;20194;-77
2021/01/23 02:00:29;;;;;;;11.50;7.13;;;;;;;;;;5075811;28;20064;-77
2021/01/23 02:03:13;;;;;;;13.45;8.50;;;;;;;;;;5075705;28;20025;-77
2021/01/23 02:06:09;;;;;;;14.50;9.70;;;;;;;;;;5075889;28;20071;-77
2021/01/23 02:08:58;;;;;;;19.30;10.70;;;;;;;;;;5075761;28;20532;-77
2021/01/23 02:11:52;;;;;;;23.70;12.48;;;;;;;;;;5076058;28;20055;-77
2021/01/23 02:14:28;;;;;;;22.80;10.77;;;;;;;;;;5075560;28;20493;-78
2021/01/23 02:16:55;;;;;;;19.08;9.45;;;;;;;;;;5075532;28;20040;-77
2021/01/23 02:19:26;;;;;;;14.95;8.50;;;;;;;;;;5075084;28;20398;-77
2021/01/23 02:22:05;;;;;;;13.48;7.97;;;;;;;;;;5075344;28;20059;-77
2021/01/23 02:24:31;;;;;;;13.00;7.43;;;;;;;;;;5075055;28;20040;-77
2021/01/23 02:27:20;;;;;;;13.07;7.38;;;;;;;;;;5075323;28;20475;-77
2021/01/23 02:30:01;;;;;;;11.93;7.20;;;;;;;;;;5075427;28;20033;-79
2021/01/23 02:32:30;;;;;;;24.13;11.90;;;;;;;;;;5076044;28;20032;-77
2021/01/23 02:34:58;;;;;;;26.88;13.50;;;;;;;;;;5075215;28;20055;-77
2021/01/23 02:37:24;;;;;;;26.52;12.57;;;;;;;;;;5075284;28;20045;-77
2021/01/23 02:39:51;;;;;;;29.92;14.48;;;;;;;;;;5075933;28;20087;-77
2021/01/23 02:42:16;;;;;;;36.75;16.48;;;;;;;;;;5075307;28;20040;-78
2021/01/23 02:44:42;;;;;;;36.42;17.52;;;;;;;;;;5075170;28;20048;-78
2021/01/23 02:47:07;;;;;;;36.30;17.35;;;;;;;;;;5076257;28;20060;-79
2021/01/23 02:49:32;;;;;;;36.90;19.08;;;;;;;;;;5115129;27;20120;-79
2021/01/23 02:52:04;;;;;;;38.28;18.50;;;;;;;;;;5114164;28;20483;-79
2021/01/23 02:54:50;;;;;;;33.63;17.15;;;;;;;;;;5114063;28;20038;-77
2021/01/23 02:57:19;;;;;;;33.73;16.50;;;;;;;;;;5115403;28;20085;-77
2021/01/23 02:59:45;;;;;;;37.40;18.48;;;;;;;;;;5115061;28;20067;-79
2021/01/23 03:02:14;;;;;;;40.30;17.33;;;;;;;;;;5114959;28;20032;-77
2021/01/23 03:04:41;;;;;;;25.80;14.07;;;;;;;;;;5114803;28;20489;-77
2021/01/23 03:07:07;;;;;;;33.95;16.92;;;;;;;;;;5115075;28;20137;-77
2021/01/23 03:09:34;;;;;;;34.95;16.63;;;;;;;;;;5114977;28;20035;-77
2021/01/23 03:11:59;;;;;;;38.15;16.20;;;;;;;;;;5114069;28;20035;-77
2021/01/23 03:14:24;;;;;;;39.60;16.88;;;;;;;;;;5114955;27;20123;-77
2021/01/23 03:16:57;;;;;;;38.97;17.63;;;;;;;;;;5114771;28;20028;-78
2021/01/23 03:19:23;;;;;;;36.72;15.30;;;;;;;;;;5094510;28;20118;-77
2021/01/23 03:21:50;;;;;;;37.65;17.65;;;;;;;;;;5094389;28;20070;-77
2021/01/23 03:24:18;;;;;;;38.00;17.30;;;;;;;;;;5094351;28;20059;-77
2021/01/23 03:26:44;;;;;;;37.80;16.52;;;;;;;;;;5094102;28;20042;-79
2021/01/23 03:29:09;;;;;;;38.88;17.67;;;;;;;;;;5094784;28;20028;-78
2021/01/23 03:31:35;;;;;;;36.47;16.15;;;;;;;;;;5094076;28;20166;-77
2021/01/23 03:34:01;;;;;;;36.00;17.20;;;;;;;;;;5093982;28;20032;-77
2021/01/23 03:36:26;;;;;;;35.53;16.52;;;;;;;;;;5093112;28;20040;-77
2021/01/23 03:38:52;;;;;;;36.90;18.38;;;;;;;;;;5094622;28;20043;-77
2021/01/23 03:41:18;;;;;;;35.58;16.95;;;;;;;;;;5093153;28;20044;-77
2021/01/23 03:43:44;;;;;;;36.53;18.88;;;;;;;;;;5094205;28;20492;-78
2021/01/23 03:46:10;;;;;;;40.55;18.45;;;;;;;;;;5093878;28;20044;-77
2021/01/23 03:48:35;;;;;;;34.08;18.33;;;;;;;;;;5080957;28;20528;-77
2021/01/23 03:51:01;;;;;;;39.70;17.95;;;;;;;;;;5073783;28;20040;-77
2021/01/23 03:53:26;;;;;;;38.88;18.10;;;;;;;;;;5073635;28;20036;-77
2021/01/23 03:55:51;;;;;;;40.33;18.00;;;;;;;;;;5073506;28;20148;-78
2021/01/23 03:58:17;;;;;;;37.20;19.85;;;;;;;;;;5073674;28;20043;-77
2021/01/23 04:00:43;;;;;;;38.40;17.85;;;;;;;;;;5073311;28;20040;-80
2021/01/23 04:03:08;;;;;;;37.08;17.15;;;;;;;;;;5073597;28;20107;-77
2021/01/23 04:05:34;;;;;;;41.33;16.58;;;;;;;;;;5073363;28;20037;-77
2021/01/23 04:07:59;;;;;;;35.47;16.70;;;;;;;;;;5073318;28;20029;-77
2021/01/23 04:10:25;;;;;;;31.80;15.57;;;;;;;;;;5073219;28;20028;-77
2021/01/23 04:12:50;;;;;;;33.03;15.77;;;;;;;;;;5073379;28;20035;-77
2021/01/23 04:15:15;;;;;;;28.45;15.38;;;;;;;;;;5073159;28;20481;-77
2021/01/23 04:17:41;;;;;;;33.72;15.23;;;;;;;;;;5078559;28;20044;-77
2021/01/23 04:20:07;;;;;;;32.78;16.17;;;;;;;;;;5092947;28;20118;-77
2021/01/23 04:22:32;;;;;;;34.53;16.30;;;;;;;;;;5093543;28;20032;-77
2021/01/23 04:24:57;;;;;;;33.53;16.23;;;;;;;;;;5093216;28;20036;-77
2021/01/23 04:27:23;;;;;;;31.15;15.52;;;;;;;;;;5093251;28;20043;-77
2021/01/23 04:29:48;;;;;;;32.50;15.13;;;;;;;;;;5091787;28;20039;-77
2021/01/23 04:32:14;;;;;;;32.10;15.32;;;;;;;;;;5093293;28;20085;-77
2021/01/23 04:34:39;;;;;;;26.35;15.35;;;;;;;;;;5091698;28;20043;-77
2021/01/23 04:37:04;;;;;;;30.95;15.07;;;;;;;;;;5093401;28;20052;-77
2021/01/23 04:39:30;;;;;;;33.03;15.13;;;;;;;;;;5093263;28;20028;-77
2021/01/23 04:41:55;;;;;;;26.55;13.30;;;;;;;;;;5091948;28;20040;-77
2021/01/23 04:44:20;;;;;;;26.40;13.88;;;;;;;;;;5093388;28;20111;-77
2021/01/23 04:46:46;;;;;;;29.00;13.77;;;;;;;;;;5092880;28;20394;-77
2021/01/23 04:49:11;;;;;;;26.80;13.60;;;;;;;;;;5093090;28;20512;-77
2021/01/23 04:51:37;;;;;;;26.38;13.35;;;;;;;;;;5093318;28;20043;-77
2021/01/23 04:54:02;;;;;;;24.45;12.90;;;;;;;;;;5093075;28;20047;-77
2021/01/23 04:56:28;;;;;;;31.73;14.60;;;;;;;;;;5093212;28;20036;-77
2021/01/23 04:58:53;;;;;;;30.67;14.07;;;;;;;;;;5092947;28;20518;-78
2021/01/23 05:01:18;;;;;;;27.75;12.20;;;;;;;;;;5093269;28;20050;-77
2021/01/23 05:04:01;;;;;;;33.65;14.85;;;;;;;;;;5093006;28;20415;-77
2021/01/23 05:06:27;;;;;;;28.33;12.45;;;;;;;;;;5093090;28;20036;-78
2021/01/23 05:08:56;;;;;;;25.55;12.68;;;;;;;;;;5093182;28;20493;-78
2021/01/23 05:11:21;;;;;;;27.65;14.32;;;;;;;;;;5092987;28;20477;-77
2021/01/23 05:14:09;;;;;;;30.75;15.88;;;;;;;;;;5092841;28;20039;-77
2021/01/23 05:16:35;;;;;;;25.23;13.05;;;;;;;;;;5093140;28;20028;-77
2021/01/23 05:19:01;;;;;;;30.65;15.35;;;;;;;;;;5075760;28;20036;-77
2021/01/23 05:21:30;;;;;;;26.92;13.93;;;;;;;;;;5072637;28;20116;-78
2021/01/23 05:24:13;;;;;;;34.67;15.45;;;;;;;;;;5072462;28;20090;-78
2021/01/23 05:26:40;;;;;;;30.20;14.40;;;;;;;;;;5072451;28;20051;-77
2021/01/23 05:29:13;;;;;;;31.45;15.57;;;;;;;;;;5071396;28;20565;-79
2021/01/23 05:31:40;;;;;;;31.23;15.20;;;;;;;;;;5072669;28;20037;-77
2021/01/23 05:34:25;;;;;;;32.13;16.00;;;;;;;;;;5072153;28;20398;-78
2021/01/23 05:36:50;;;;;;;38.25;17.58;;;;;;;;;;5076302;28;20039;-77
2021/01/23 05:39:15;;;;;;;34.67;17.13;;;;;;;;;;5074700;28;20044;-77
2021/01/23 05:41:41;;;;;;;34.20;16.55;;;;;;;;;;5082949;28;20035;-78
2021/01/23 05:44:11;;;;;;;33.60;16.60;;;;;;;;;;5116929;28;20118;-77
2021/01/23 05:46:37;;;;;;;32.05;16.08;;;;;;;;;;5115206;28;20051;-77
2021/01/23 05:49:03;;;;;;;32.33;16.35;;;;;;;;;;5116234;28;20397;-77
2021/01/23 05:51:28;;;;;;;33.92;16.40;;;;;;;;;;5116112;28;20043;-77
2021/01/23 05:53:54;;;;;;;36.78;17.00;;;;;;;;;;5116396;28;20035;-78
2021/01/23 05:56:23;;;;;;;44.13;19.02;;;;;;;;;;5101450;28;20031;-79
2021/01/23 05:58:48;;;;;;;45.78;19.17;;;;;;;;;;5119532;28;20118;-78
2021/01/23 06:01:22;;;;;;;43.75;19.02;;;;;;;;;;5119063;28;20061;-80
2021/01/23 06:03:49;;;;;;;39.85;19.65;;;;;;;;;;5118303;28;20393;-79
2021/01/23 06:06:14;;;;;;;40.15;18.77;;;;;;;;;;5118984;27;20038;-79
2021/01/23 06:08:45;;;;;;;40.55;18.08;;;;;;;;;;5119487;28;20028;-78
2021/01/23 06:11:19;;;;;;;39.35;18.83;;;;;;;;;;5119135;28;20439;-79
2021/01/23 06:13:52;;;;;;;45.83;19.77;;;;;;;;;;5119563;28;20067;-80
2021/01/23 06:16:33;;;;;;;36.22;19.48;;;;;;;;;;5119933;28;20073;-78
2021/01/23 06:18:59;;;;;;;125.85;21.77;;;;;;;;;;5119301;28;20046;-78
2021/01/23 06:21:56;;;;;;;41.00;20.38;;;;;;;;;;5119767;28;20032;-78
2021/01/23 06:24:31;;;;;;;38.08;19.20;;;;;;;;;;5074607;27;20047;-78
2021/01/23 06:26:57;;;;;;;38.85;18.92;;;;;;;;;;5120173;27;20462;-79
2021/01/23 06:29:36;;;;;;;37.60;19.50;;;;;;;;;;5120350;28;20035;-79
2021/01/23 06:32:13;;;;;;;39.33;19.50;;;;;;;;;;5119794;28;20469;-78
2021/01/23 06:35:01;;;;;;;40.78;20.52;;;;;;;;;;5118302;28;20043;-78
2021/01/23 06:37:33;;;;;;;42.15;20.25;;;;;;;;;;5118566;28;20039;-78
2021/01/23 06:40:23;;;;;;;42.42;20.42;;;;;;;;;;5116901;28;20088;-78
2021/01/23 06:42:49;;;;;;;41.42;20.90;;;;;;;;;;5091075;28;20044;-79
2021/01/23 06:45:26;;;;;;;113.70;23.90;;;;;;;;;;5077028;28;20036;-80
2021/01/23 06:47:54;;;;;;;129.00;23.38;;;;;;;;;;5075499;28;20121;-78
2021/01/23 06:50:30;;;;;;;43.08;20.45;;;;;;;;;;5074698;28;20033;-79
2021/01/23 06:52:56;;;;;;;46.03;22.25;;;;;;;;;;5077104;28;20044;-80
2021/01/23 06:55:40;;;;;;;50.92;23.23;;;;;;;;;;5078087;28;20033;-79
2021/01/23 06:58:17;;;;;;;59.58;23.55;;;;;;;;;;5076748;28;20040;-80
2021/01/23 07:00:43;;;;;;;52.08;22.65;;;;;;;;;;5078609;28;20036;-80
2021/01/23 07:03:09;;;;;;;47.85;21.85;;;;;;;;;;5076094;28;20047;-78
2021/01/23 07:05:44;;;;;;;49.85;23.23;;;;;;;;;;5074032;28;20047;-78
2021/01/23 07:08:19;;;;;;;56.45;23.77;;;;;;;;;;5074453;28;20076;-78
2021/01/23 07:10:45;;;;;;;64.78;23.15;;;;;;;;;;5074419;28;20031;-77
2021/01/23 07:13:10;;;;;;;45.47;21.23;;;;;;;;;;5090287;28;20386;-78
2021/01/23 07:15:36;;;;;;;51.58;23.17;;;;;;;;;;5094265;28;20035;-77
2021/01/23 07:18:14;;;;;;;47.80;20.98;;;;;;;;;;5093954;28;20117;-77
2021/01/23 07:20:40;;;;;;;48.08;21.20;;;;;;;;;;5093939;28;20032;-78
2021/01/23 07:23:05;;;;;;;51.45;23.08;;;;;;;;;;5094177;28;20046;-77
2021/01/23 07:25:31;;;;;;;45.25;21.33;;;;;;;;;;5092298;28;20046;-77
2021/01/23 07:27:57;;;;;;;34.88;18.60;;;;;;;;;;5095095;28;20028;-80
2021/01/23 07:30:22;;;;;;;42.20;20.40;;;;;;;;;;5097120;28;20032;-78
2021/01/23 07:32:48;;;;;;;39.05;19.40;;;;;;;;;;5094806;28;20043;-78
2021/01/23 07:35:15;;;;;;;37.97;18.42;;;;;;;;;;5097817;28;20448;-79
2021/01/23 07:37:46;;;;;;;37.58;19.20;;;;;;;;;;5097396;28;20032;-77
2021/01/23 07:40:16;;;;;;;35.88;19.90;;;;;;;;;;5094520;28;20036;-77
2021/01/23 07:42:42;;;;;;;35.47;19.92;;;;;;;;;;5094694;28;20036;-76
2021/01/23 07:45:10;;;;;;;35.28;17.75;;;;;;;;;;5100804;28;20027;-78
2021/01/23 07:47:36;;;;;;;34.58;19.20;;;;;;;;;;5114737;28;20040;-77
2021/01/23 07:50:05;;;;;;;31.70;17.35;;;;;;;;;;5114905;28;20032;-78
2021/01/23 07:52:31;;;;;;;31.30;17.60;;;;;;;;;;5113172;28;20035;-77
2021/01/23 07:54:56;;;;;;;32.08;17.73;;;;;;;;;;5115208;28;20085;-78
2021/01/23 07:57:21;;;;;;;33.88;18.58;;;;;;;;;;5114490;28;20031;-79
2021/01/23 07:59:47;;;;;;;30.48;17.92;;;;;;;;;;5116093;28;20111;-79
2021/01/23 08:02:17;;;;;;;32.38;17.30;;;;;;;;;;5114624;28;20481;-79
2021/01/23 08:04:47;;;;;;;60.05;19.67;;;;;;;;;;5116661;28;20404;-79
2021/01/23 08:07:16;;;;;;;144.68;18.95;;;;;;;;;;5116169;28;20036;-77
2021/01/23 08:09:41;;;;;;;31.20;17.45;;;;;;;;;;5116166;28;20445;-79
2021/01/23 08:12:18;;;;;;;56.28;18.80;;;;;;;;;;5117830;28;20125;-78
2021/01/23 08:14:51;;;;;;;30.42;19.00;;;;;;;;;;5113713;28;20054;-77
2021/01/23 08:17:16;;;;;;;28.08;16.48;;;;;;;;;;5095047;28;20039;-78
2021/01/23 08:19:51;;;;;;;42.80;18.35;;;;;;;;;;5095204;28;20032;-79
2021/01/23 08:22:16;;;;;;;40.65;17.02;;;;;;;;;;5097023;28;20040;-78
2021/01/23 08:24:42;;;;;;;29.92;16.50;;;;;;;;;;5097576;28;20028;-78
2021/01/23 08:27:18;;;;;;;32.85;17.35;;;;;;;;;;5098060;28;20397;-80
2021/01/23 08:29:45;;;;;;;25.70;15.70;;;;;;;;;;5095213;28;20493;-78
2021/01/23 08:32:10;;;;;;;26.70;16.30;;;;;;;;;;5094189;28;20089;-77
2021/01/23 08:34:36;;;;;;;30.73;17.80;;;;;;;;;;5095397;28;20040;-78
2021/01/23 08:37:02;;;;;;;29.70;17.13;;;;;;;;;;5094530;28;20517;-78
2021/01/23 08:39:27;;;;;;;27.80;16.08;;;;;;;;;;5095531;28;20028;-78
2021/01/23 08:41:53;;;;;;;26.25;15.77;;;;;;;;;;5097394;28;20601;-77
2021/01/23 08:44:18;;;;;;;34.28;16.30;;;;;;;;;;5113506;28;20461;-77
2021/01/23 08:46:43;;;;;;;28.27;15.35;;;;;;;;;;5113100;28;20142;-77
2021/01/23 08:49:09;;;;;;;24.70;15.40;;;;;;;;;;5115089;28;20034;-77
2021/01/23 08:51:34;;;;;;;31.58;15.90;;;;;;;;;;5114504;28;20039;-77
2021/01/23 08:54:00;;;;;;;24.85;15.50;;;;;;;;;;5114574;28;20107;-78
2021/01/23 08:56:25;;;;;;;25.55;15.45;;;;;;;;;;5114311;28;20381;-77
2021/01/23 08:58:51;;;;;;;26.85;13.85;;;;;;;;;;5114378;28;20038;-77
2021/01/23 09:01:16;;;;;;;19.23;13.02;;;;;;;;;;5113175;28;20036;-77
2021/01/23 09:03:41;;;;;;;20.42;13.75;;;;;;;;;;5113608;28;20035;-77
2021/01/23 09:06:07;;;;;;;23.63;14.18;;;;;;;;;;5113741;28;20419;-77
2021/01/23 09:08:33;;;;;;;20.83;14.15;;;;;;;;;;5113493;28;20473;-78
2021/01/23 09:10:58;;;;;;;22.38;15.10;;;;;;;;;;5115810;28;20046;-77
2021/01/23 09:13:24;;;;;;;24.88;14.93;;;;;;;;;;5101642;28;20039;-77
2021/01/23 09:15:49;;;;;;;20.83;14.10;;;;;;;;;;5098331;28;20044;-78
2021/01/23 09:18:14;;;;;;;23.80;15.40;;;;;;;;;;5099231;28;20036;-78
2021/01/23 09:20:40;;;;;;;22.38;14.50;;;;;;;;;;5099800;28;20040;-78
2021/01/23 09:23:05;;;;;;;29.35;16.17;;;;;;;;;;5099832;28;20039;-80
2021/01/23 09:25:30;;;;;;;29.35;18.35;;;;;;;;;;5100399;28;20055;-80
2021/01/23 09:27:57;;;;;;;29.10;18.02;;;;;;;;;;5083398;28;20449;-78
2021/01/23 09:30:22;;;;;;;29.65;16.98;;;;;;;;;;5099059;28;20079;-78
2021/01/23 09:32:47;;;;;;;30.17;18.63;;;;;;;;;;5097704;28;20068;-80
2021/01/23 09:35:13;;;;;;;29.00;17.23;;;;;;;;;;5075904;28;20032;-77
2021/01/23 09:37:38;;;;;;;32.28;16.65;;;;;;;;;;5075235;28;20382;-78
2021/01/23 09:40:05;;;;;;;27.48;17.33;;;;;;;;;;5076222;28;20031;-78
2021/01/23 09:42:31;;;;;;;63.75;20.27;;;;;;;;;;5112091;28;20054;-77
2021/01/23 09:44:57;;;;;;;29.58;18.52;;;;;;;;;;5116803;28;20488;-76
2021/01/23 09:47:23;;;;;;;29.13;18.90;;;;;;;;;;5116563;28;20048;-76
2021/01/23 09:49:49;;;;;;;27.95;18.05;;;;;;;;;;5116337;28;20024;-76
2021/01/23 09:52:14;;;;;;;29.45;18.27;;;;;;;;;;5116268;28;20673;-76
2021/01/23 09:54:40;;;;;;;28.10;17.60;;;;;;;;;;5116291;28;20140;-74
2021/01/23 09:57:05;;;;;;;27.63;17.13;;;;;;;;;;5117190;28;20122;-76
2021/01/23 09:59:31;;;;;;;27.65;17.42;;;;;;;;;;5118726;28;20380;-78
2021/01/23 10:02:00;;;;;;;24.85;16.23;;;;;;;;;;5118786;28;20031;-77
2021/01/23 10:04:29;;;;;;;22.98;15.57;;;;;;;;;;5116431;28;20532;-77
2021/01/23 10:06:55;;;;;;;20.75;14.18;;;;;;;;;;5117729;28;20047;-78
2021/01/23 10:09:21;;;;;;;21.50;14.52;;;;;;;;;;5117340;28;20049;-79
2021/01/23 10:11:47;;;;;;;20.42;13.35;;;;;;;;;;5105104;28;20736;-79
2021/01/23 10:14:12;;;;;;;18.33;12.23;;;;;;;;;;5098559;28;20032;-79
2021/01/23 10:16:38;;;;;;;20.67;14.05;;;;;;;;;;5098728;28;20035;-78
2021/01/23 10:19:04;;;;;;;32.45;14.60;;;;;;;;;;5096046;28;20043;-79
2021/01/23 10:21:30;;;;;;;29.42;16.65;;;;;;;;;;5095980;28;20039;-79
2021/01/23 10:23:56;;;;;;;76.65;19.17;;;;;;;;;;5097652;28;20040;-79
2021/01/23 10:26:21;;;;;;;37.80;19.48;;;;;;;;;;5096645;28;20127;-76
2021/01/23 10:28:47;;;;;;;30.02;17.23;;;;;;;;;;5099292;28;20089;-78
2021/01/23 10:31:12;;;;;;;26.95;17.00;;;;;;;;;;5098194;28;20047;-79
2021/01/23 10:33:37;;;;;;;23.27;15.90;;;;;;;;;;5098234;28;20137;-78
2021/01/23 10:36:03;;;;;;;21.15;14.30;;;;;;;;;;5097537;28;20077;-79
2021/01/23 10:38:28;;;;;;;20.67;14.18;;;;;;;;;;5098083;28;20397;-78
2021/01/23 10:40:54;;;;;;;22.10;14.07;;;;;;;;;;5101802;28;20042;-78
2021/01/23 10:43:19;;;;;;;26.60;15.25;;;;;;;;;;5116395;28;20043;-77
2021/01/23 10:45:45;;;;;;;25.40;16.73;;;;;;;;;;5115682;28;20048;-77
2021/01/23 10:48:10;;;;;;;36.63;20.67;;;;;;;;;;5115559;27;20034;-77
2021/01/23 10:50:35;;;;;;;25.02;16.25;;;;;;;;;;5114161;28;20031;-77
2021/01/23 10:53:01;;;;;;;24.13;15.52;;;;;;;;;;5115356;28;20044;-77
2021/01/23 10:55:27;;;;;;;22.70;15.15;;;;;;;;;;5115395;28;20093;-79
2021/01/23 10:57:52;;;;;;;29.27;18.83;;;;;;;;;;5115584;28;20039;-74
2021/01/23 11:00:18;;;;;;;27.55;17.23;;;;;;;;;;5115083;28;20506;-77
2021/01/23 11:02:44;;;;;;;30.98;18.90;;;;;;;;;;5114333;28;20045;-78
2021/01/23 11:05:10;;;;;;;25.85;18.00;;;;;;;;;;5115681;28;20043;-76
2021/01/23 11:07:35;;;;;;;24.50;16.35;;;;;;;;;;5115528;28;20449;-76
2021/01/23 11:10:00;;;;;;;25.13;16.55;;;;;;;;;;5115639;28;20039;-77
2021/01/23 11:12:26;;;;;;;24.52;15.80;;;;;;;;;;5088340;28;20028;-77
2021/01/23 11:14:51;;;;;;;24.90;16.30;;;;;;;;;;5074896;28;20052;-77
2021/01/23 11:17:17;;;;;;;23.52;15.98;;;;;;;;;;5073900;28;20106;-79
2021/01/23 11:19:42;;;;;;;24.35;17.20;;;;;;;;;;5075201;28;20540;-79
2021/01/23 11:22:08;;;;;;;23.35;15.23;;;;;;;;;;5074820;28;20033;-77
2021/01/23 11:24:33;;;;;;;20.95;15.25;;;;;;;;;;5074171;28;20047;-75
2021/01/23 11:26:59;;;;;;;25.27;15.90;;;;;;;;;;5074107;28;20040;-78
2021/01/23 11:29:25;;;;;;;20.23;14.10;;;;;;;;;;5074557;28;20025;-76
2021/01/23 11:31:51;;;;;;;20.48;15.35;;;;;;;;;;5073716;28;20478;-73
2021/01/23 11:34:16;;;;;;;19.73;14.25;;;;;;;;;;5072715;28;20029;-76
2021/01/23 11:36:41;;;;;;;17.40;12.25;;;;;;;;;;5072523;28;20051;-78
2021/01/23 11:39:06;;;;;;;17.00;11.60;;;;;;;;;;5073971;28;20037;-75
2021/01/23 11:41:32;;;;;;;15.95;11.50;;;;;;;;;;5074890;28;20040;-75
2021/01/23 11:43:57;;;;;;;18.52;11.60;;;;;;;;;;5094003;28;20129;-74
2021/01/23 11:46:23;;;;;;;18.30;12.18;;;;;;;;;;5093592;28;20083;-76
2021/01/23 11:48:48;;;;;;;18.17;11.68;;;;;;;;;;5093919;28;20113;-75
2021/01/23 11:51:13;;;;;;;19.35;12.15;;;;;;;;;;5093827;28;20032;-77
2021/01/23 11:53:39;;;;;;;24.10;12.68;;;;;;;;;;5094042;28;20027;-75
2021/01/23 11:56:05;;;;;;;16.65;11.00;;;;;;;;;;5094125;28;20346;-75
2021/01/23 11:58:30;;;;;;;16.42;11.38;;;;;;;;;;5093900;28;20039;-75
2021/01/23 12:00:55;;;;;;;17.20;10.82;;;;;;;;;;5093843;28;20122;-75
2021/01/23 12:03:21;;;;;;;13.75;10.48;;;;;;;;;;5093722;28;20059;-75
2021/01/23 12:05:46;;;;;;;15.75;10.68;;;;;;;;;;5094033;28;20081;-78
2021/01/23 12:08:12;;;;;;;19.40;10.50;;;;;;;;;;5093931;28;20116;-74
2021/01/23 12:10:37;;;;;;;13.55;9.60;;;;;;;;;;5093583;28;20363;-73
2021/01/23 12:13:05;;;;;;;14.65;10.10;;;;;;;;;;5093378;28;20028;-77
2021/01/23 12:15:30;;;;;;;14.48;9.98;;;;;;;;;;5093582;28;20458;-74
2021/01/23 12:17:56;;;;;;;16.38;9.48;;;;;;;;;;5093393;28;20101;-72
2021/01/23 12:20:21;;;;;;;12.25;9.27;;;;;;;;;;5093594;28;20036;-74
2021/01/23 12:22:48;;;;;;;16.73;8.65;;;;;;;;;;5083090;28;20039;-77
2021/01/23 12:25:15;;;;;;;11.50;7.97;;;;;;;;;;5097030;28;20104;-79
2021/01/23 12:27:43;;;;;;;12.25;7.43;;;;;;;;;;5099188;28;20028;-78
2021/01/23 12:30:10;;;;;;;11.55;7.15;;;;;;;;;;5098339;28;20489;-82
2021/01/23 12:32:36;;;;;;;9.38;7.15;;;;;;;;;;5092845;28;20462;-77
2021/01/23 12:35:04;;;;;;;11.20;7.32;;;;;;;;;;5092227;28;20031;-76
2021/01/23 12:37:30;;;;;;;14.70;8.70;;;;;;;;;;5097473;28;20039;-82
2021/01/23 12:39:57;;;;;;;8.93;6.35;;;;;;;;;;5098022;28;20042;-81
2021/01/23 12:42:22;;;;;;;14.30;7.93;;;;;;;;;;5091253;28;20028;-76
2021/01/23 12:44:47;;;;;;;14.43;8.93;;;;;;;;;;5086878;28;20084;-75
2021/01/23 12:47:13;;;;;;;11.35;7.75;;;;;;;;;;5117592;28;20055;-76
2021/01/23 12:49:38;;;;;;;11.57;7.97;;;;;;;;;;5118115;28;20088;-79
2021/01/23 12:52:04;;;;;;;17.27;8.57;;;;;;;;;;5100347;28;20104;-77
2021/01/23 12:54:29;;;;;;;11.02;7.50;;;;;;;;;;5118664;28;20089;-79
2021/01/23 12:56:54;;;;;;;12.60;9.13;;;;;;;;;;5085756;28;20032;-83
2021/01/23 12:59:21;;;;;;;12.15;7.78;;;;;;;;;;5087640;28;20041;-82
2021/01/23 13:01:47;;;;;;;12.80;8.20;;;;;;;;;;5066650;28;20032;-81
2021/01/23 13:04:16;;;;;;;12.48;8.50;;;;;;;;;;5084271;28;20036;-82
2021/01/23 13:06:41;;;;;;;12.88;8.25;;;;;;;;;;5084596;28;20138;-80
2021/01/23 13:09:07;;;;;;;21.17;9.15;;;;;;;;;;5082516;28;20074;-79
2021/01/23 13:11:33;;;;;;;12.52;8.20;;;;;;;;;;5098370;28;20039;-79
2021/01/23 13:13:59;;;;;;;15.02;8.05;;;;;;;;;;5093496;28;20040;-78
2021/01/23 13:16:26;;;;;;;11.25;7.55;;;;;;;;;;5085297;28;20047;-78
2021/01/23 13:18:52;;;;;;;10.55;8.45;;;;;;;;;;5078663;28;20032;-84
2021/01/23 13:21:18;;;;;;;11.35;8.30;;;;;;;;;;5075219;28;20036;-82
2021/01/23 13:23:48;;;;;;;11.85;8.43;;;;;;;;;;5099960;28;20428;-85
2021/01/23 13:26:15;;;;;;;14.45;9.68;;;;;;;;;;5097745;28;20036;-83
2021/01/23 13:28:41;;;;;;;12.48;8.70;;;;;;;;;;5085754;28;20078;-76
2021/01/23 13:31:06;;;;;;;17.40;9.07;;;;;;;;;;5075878;28;20455;-76
2021/01/23 13:33:32;;;;;;;12.02;7.93;;;;;;;;;;5078470;28;20119;-76
2021/01/23 13:35:57;;;;;;;11.05;8.20;;;;;;;;;;5096421;28;20040;-76
2021/01/23 13:38:23;;;;;;;13.18;7.75;;;;;;;;;;5096321;28;20066;-77
2021/01/23 13:40:48;;;;;;;11.02;7.47;;;;;;;;;;5094881;28;20039;-76
2021/01/23 13:43:14;;;;;;;9.18;6.70;;;;;;;;;;5096071;28;20047;-76
2021/01/23 13:45:39;;;;;;;10.50;6.53;;;;;;;;;;5098570;28;20048;-84
2021/01/23 13:48:05;;;;;;;9.82;6.90;;;;;;;;;;5110131;28;20047;-78
2021/01/23 13:50:30;;;;;;;12.43;7.70;;;;;;;;;;5084214;28;20056;-73
2021/01/23 13:52:56;;;;;;;7.60;6.13;;;;;;;;;;5093598;28;20036;-74
2021/01/23 13:55:22;;;;;;;12.05;6.72;;;;;;;;;;5094177;28;20097;-75
2021/01/23 13:57:48;;;;;;;8.70;6.07;;;;;;;;;;5094823;28;20036;-73
2021/01/23 14:00:14;;;;;;;9.27;6.95;;;;;;;;;;5095144;28;20032;-73
2021/01/23 14:02:40;;;;;;;10.15;6.18;;;;;;;;;;5095691;28;20028;-73
2021/01/23 14:05:06;;;;;;;12.82;6.25;;;;;;;;;;5095735;28;20485;-73
2021/01/23 14:07:31;;;;;;;10.13;6.97;;;;;;;;;;5095833;28;20036;-73
2021/01/23 14:09:56;;;;;;;9.10;6.13;;;;;;;;;;5095890;28;20036;-73
2021/01/23 14:12:22;;;;;;;10.07;5.90;;;;;;;;;;5094604;28;20454;-73
2021/01/23 14:14:47;;;;;;;9.02;6.32;;;;;;;;;;5095663;28;20409;-73
2021/01/23 14:17:12;;;;;;;8.23;6.20;;;;;;;;;;5094494;28;20039;-73
2021/01/23 14:19:38;;;;;;;10.60;6.18;;;;;;;;;;5095552;28;20024;-73
2021/01/23 14:22:03;;;;;;;9.57;6.57;;;;;;;;;;5095649;28;20432;-73